sensor_id;sensor_type;location;lat;lon;timestamp;P1;durP1;ratioP1;P2;durP2;ratioP2
26277;SDS011;14000;52.056;8.510;2022-10-16T00:00:31;11.53;;;4.53;;
26277;SDS011;14000;52.056;8.510;2022-10-16T00:02:56;12.57;;;4.60;;
26277;SDS011;14000;52.056;8.510;2022-10-16T00:05:25;11.80;;;4.27;;
26277;SDS011;14000;52.056;8.510;2022-10-16T00:07:51;13.10;;;5.30;;
26277;SDS011;14000;52.056;8.510;2022-10-16T00:10:16;12.63;;;4.90;;
26277;SDS011;14000;52.056;8.510;2022-10-16T00:12:42;14.30;;;5.70;;
26277;SDS011;14000;52.056;8.510;2022-10-16T00:15:08;14.87;;;5.50;;
26277;SDS011;14000;52.056;8.510;2022-10-16T00:17:34;13.10;;;5.50;;
26277;SDS011;14000;52.056;8.510;2022-10-16T00:19:59;12.50;;;4.67;;
26277;SDS011;14000;52.056;8.510;2022-10-16T00:22:25;10.73;;;4.27;;
26277;SDS011;14000;52.056;8.510;2022-10-16T00:24:50;10.73;;;4.50;;
26277;SDS011;14000;52.056;8.510;2022-10-16T00:27:16;13.97;;;4.00;;
26277;SDS011;14000;52.056;8.510;2022-10-16T00:29:42;11.23;;;3.67;;
26277;SDS011;14000;52.056;8.510;2022-10-16T00:32:08;13.93;;;4.30;;
26277;SDS011;14000;52.056;8.510;2022-10-16T00:34:33;11.90;;;3.60;;
26277;SDS011;14000;52.056;8.510;2022-10-16T00:36:59;12.23;;;4.03;;
26277;SDS011;14000;52.056;8.510;2022-10-16T00:39:25;11.60;;;3.60;;
26277;SDS011;14000;52.056;8.510;2022-10-16T00:41:51;11.27;;;3.70;;
26277;SDS011;14000;52.056;8.510;2022-10-16T00:47:21;12.90;;;4.20;;
26277;SDS011;14000;52.056;8.510;2022-10-16T00:49:48;10.33;;;3.87;;
26277;SDS011;14000;52.056;8.510;2022-10-16T00:52:16;11.10;;;4.57;;
26277;SDS011;14000;52.056;8.510;2022-10-16T00:54:42;13.13;;;4.97;;
26277;SDS011;14000;52.056;8.510;2022-10-16T00:57:09;13.23;;;5.60;;
26277;SDS011;14000;52.056;8.510;2022-10-16T00:59:40;13.97;;;5.50;;
26277;SDS011;14000;52.056;8.510;2022-10-16T01:02:08;11.93;;;4.87;;
26277;SDS011;14000;52.056;8.510;2022-10-16T01:04:46;15.50;;;6.17;;
26277;SDS011;14000;52.056;8.510;2022-10-16T01:07:30;16.40;;;6.40;;
26277;SDS011;14000;52.056;8.510;2022-10-16T01:10:30;13.03;;;5.83;;
26277;SDS011;14000;52.056;8.510;2022-10-16T01:13:29;14.93;;;6.93;;
26277;SDS011;14000;52.056;8.510;2022-10-16T01:16:01;15.53;;;7.30;;
26277;SDS011;14000;52.056;8.510;2022-10-16T01:18:57;13.20;;;6.87;;
26277;SDS011;14000;52.056;8.510;2022-10-16T01:21:43;15.30;;;6.70;;
26277;SDS011;14000;52.056;8.510;2022-10-16T01:24:16;15.13;;;6.70;;
26277;SDS011;14000;52.056;8.510;2022-10-16T01:27:05;13.07;;;6.00;;
26277;SDS011;14000;52.056;8.510;2022-10-16T01:32:33;14.27;;;7.67;;
26277;SDS011;14000;52.056;8.510;2022-10-16T01:37:46;14.73;;;7.10;;
26277;SDS011;14000;52.056;8.510;2022-10-16T01:40:20;12.57;;;6.60;;
26277;SDS011;14000;52.056;8.510;2022-10-16T01:42:50;16.83;;;6.43;;
26277;SDS011;14000;52.056;8.510;2022-10-16T01:45:21;15.17;;;6.03;;
26277;SDS011;14000;52.056;8.510;2022-10-16T01:47:47;15.10;;;6.20;;
26277;SDS011;14000;52.056;8.510;2022-10-16T01:50:15;15.97;;;6.57;;
26277;SDS011;14000;52.056;8.510;2022-10-16T01:52:44;16.07;;;5.63;;
26277;SDS011;14000;52.056;8.510;2022-10-16T01:55:13;12.87;;;5.50;;
26277;SDS011;14000;52.056;8.510;2022-10-16T01:57:41;13.50;;;6.07;;
26277;SDS011;14000;52.056;8.510;2022-10-16T02:00:10;14.90;;;6.03;;
26277;SDS011;14000;52.056;8.510;2022-10-16T02:02:39;19.30;;;6.23;;
26277;SDS011;14000;52.056;8.510;2022-10-16T02:05:27;13.80;;;5.40;;
26277;SDS011;14000;52.056;8.510;2022-10-16T02:07:56;12.67;;;5.73;;
26277;SDS011;14000;52.056;8.510;2022-10-16T02:10:23;14.03;;;5.73;;
26277;SDS011;14000;52.056;8.510;2022-10-16T02:13:00;13.13;;;7.27;;
26277;SDS011;14000;52.056;8.510;2022-10-16T02:15:36;14.67;;;7.07;;
26277;SDS011;14000;52.056;8.510;2022-10-16T02:18:03;16.53;;;6.93;;
26277;SDS011;14000;52.056;8.510;2022-10-16T02:20:32;13.60;;;6.47;;
26277;SDS011;14000;52.056;8.510;2022-10-16T02:23:05;15.23;;;6.33;;
26277;SDS011;14000;52.056;8.510;2022-10-16T02:25:42;17.23;;;7.10;;
26277;SDS011;14000;52.056;8.510;2022-10-16T02:28:22;13.07;;;6.53;;
26277;SDS011;14000;52.056;8.510;2022-10-16T02:30:59;15.83;;;6.70;;
26277;SDS011;14000;52.056;8.510;2022-10-16T02:33:29;15.97;;;7.10;;
26277;SDS011;14000;52.056;8.510;2022-10-16T02:35:56;15.03;;;6.23;;
26277;SDS011;14000;52.056;8.510;2022-10-16T02:38:23;14.37;;;6.13;;
26277;SDS011;14000;52.056;8.510;2022-10-16T02:40:52;14.43;;;6.40;;
26277;SDS011;14000;52.056;8.510;2022-10-16T02:43:19;12.40;;;6.13;;
26277;SDS011;14000;52.056;8.510;2022-10-16T02:45:46;16.97;;;6.80;;
26277;SDS011;14000;52.056;8.510;2022-10-16T02:48:12;15.73;;;6.87;;
26277;SDS011;14000;52.056;8.510;2022-10-16T02:50:38;14.50;;;6.70;;
26277;SDS011;14000;52.056;8.510;2022-10-16T02:53:04;13.53;;;6.40;;
26277;SDS011;14000;52.056;8.510;2022-10-16T02:55:30;12.83;;;5.60;;
26277;SDS011;14000;52.056;8.510;2022-10-16T02:57:57;14.63;;;4.97;;
26277;SDS011;14000;52.056;8.510;2022-10-16T03:00:23;14.07;;;5.40;;
26277;SDS011;14000;52.056;8.510;2022-10-16T03:02:49;11.17;;;4.73;;
26277;SDS011;14000;52.056;8.510;2022-10-16T03:05:16;15.13;;;5.20;;
26277;SDS011;14000;52.056;8.510;2022-10-16T03:07:42;10.40;;;5.20;;
26277;SDS011;14000;52.056;8.510;2022-10-16T03:10:09;11.57;;;4.67;;
26277;SDS011;14000;52.056;8.510;2022-10-16T03:12:35;12.50;;;5.43;;
26277;SDS011;14000;52.056;8.510;2022-10-16T03:15:02;13.57;;;6.53;;
26277;SDS011;14000;52.056;8.510;2022-10-16T03:17:29;14.67;;;5.40;;
26277;SDS011;14000;52.056;8.510;2022-10-16T03:19:55;16.03;;;6.20;;
26277;SDS011;14000;52.056;8.510;2022-10-16T03:22:21;12.80;;;6.20;;
26277;SDS011;14000;52.056;8.510;2022-10-16T03:24:47;14.17;;;5.77;;
26277;SDS011;14000;52.056;8.510;2022-10-16T03:27:16;13.33;;;5.50;;
26277;SDS011;14000;52.056;8.510;2022-10-16T03:29:42;15.17;;;5.77;;
26277;SDS011;14000;52.056;8.510;2022-10-16T03:32:08;15.40;;;6.27;;
26277;SDS011;14000;52.056;8.510;2022-10-16T03:34:34;14.37;;;5.50;;
26277;SDS011;14000;52.056;8.510;2022-10-16T03:37:01;12.70;;;5.70;;
26277;SDS011;14000;52.056;8.510;2022-10-16T03:39:27;12.20;;;5.73;;
26277;SDS011;14000;52.056;8.510;2022-10-16T03:41:53;11.13;;;5.50;;
26277;SDS011;14000;52.056;8.510;2022-10-16T03:44:19;11.53;;;6.00;;
26277;SDS011;14000;52.056;8.510;2022-10-16T03:46:45;14.03;;;6.10;;
26277;SDS011;14000;52.056;8.510;2022-10-16T03:49:14;12.77;;;5.60;;
26277;SDS011;14000;52.056;8.510;2022-10-16T03:51:40;13.53;;;5.63;;
26277;SDS011;14000;52.056;8.510;2022-10-16T03:54:10;12.37;;;5.50;;
26277;SDS011;14000;52.056;8.510;2022-10-16T03:56:38;14.13;;;5.90;;
26277;SDS011;14000;52.056;8.510;2022-10-16T03:59:04;11.80;;;5.00;;
26277;SDS011;14000;52.056;8.510;2022-10-16T04:01:31;10.60;;;4.67;;
26277;SDS011;14000;52.056;8.510;2022-10-16T04:03:57;11.40;;;4.97;;
26277;SDS011;14000;52.056;8.510;2022-10-16T04:06:23;10.70;;;4.80;;
26277;SDS011;14000;52.056;8.510;2022-10-16T04:08:49;11.40;;;5.20;;
26277;SDS011;14000;52.056;8.510;2022-10-16T04:11:15;11.23;;;4.10;;
26277;SDS011;14000;52.056;8.510;2022-10-16T04:13:41;10.47;;;4.80;;
26277;SDS011;14000;52.056;8.510;2022-10-16T04:16:08;11.97;;;4.70;;
26277;SDS011;14000;52.056;8.510;2022-10-16T04:18:35;10.37;;;4.57;;
26277;SDS011;14000;52.056;8.510;2022-10-16T04:21:04;10.57;;;4.50;;
26277;SDS011;14000;52.056;8.510;2022-10-16T04:23:31;11.30;;;4.50;;
26277;SDS011;14000;52.056;8.510;2022-10-16T04:25:58;11.23;;;4.67;;
26277;SDS011;14000;52.056;8.510;2022-10-16T04:28:25;12.23;;;5.03;;
26277;SDS011;14000;52.056;8.510;2022-10-16T04:30:54;9.63;;;4.17;;
26277;SDS011;14000;52.056;8.510;2022-10-16T04:33:20;10.43;;;4.50;;
26277;SDS011;14000;52.056;8.510;2022-10-16T04:35:47;9.27;;;3.87;;
26277;SDS011;14000;52.056;8.510;2022-10-16T04:38:12;11.90;;;4.17;;
26277;SDS011;14000;52.056;8.510;2022-10-16T04:40:39;12.80;;;4.43;;
26277;SDS011;14000;52.056;8.510;2022-10-16T04:43:07;10.97;;;4.63;;
26277;SDS011;14000;52.056;8.510;2022-10-16T04:45:33;9.00;;;3.93;;
26277;SDS011;14000;52.056;8.510;2022-10-16T04:47:59;10.07;;;4.17;;
26277;SDS011;14000;52.056;8.510;2022-10-16T04:50:24;10.40;;;3.83;;
26277;SDS011;14000;52.056;8.510;2022-10-16T04:52:50;12.50;;;3.87;;
26277;SDS011;14000;52.056;8.510;2022-10-16T04:55:16;11.47;;;3.70;;
26277;SDS011;14000;52.056;8.510;2022-10-16T04:57:42;8.93;;;3.57;;
26277;SDS011;14000;52.056;8.510;2022-10-16T05:00:07;8.63;;;3.30;;
26277;SDS011;14000;52.056;8.510;2022-10-16T05:02:34;8.97;;;3.43;;
26277;SDS011;14000;52.056;8.510;2022-10-16T05:05:00;9.90;;;3.73;;
26277;SDS011;14000;52.056;8.510;2022-10-16T05:07:25;9.90;;;3.90;;
26277;SDS011;14000;52.056;8.510;2022-10-16T05:09:51;9.23;;;3.77;;
26277;SDS011;14000;52.056;8.510;2022-10-16T05:12:17;9.73;;;3.70;;
26277;SDS011;14000;52.056;8.510;2022-10-16T05:14:42;10.97;;;4.10;;
26277;SDS011;14000;52.056;8.510;2022-10-16T05:17:08;10.03;;;3.50;;
26277;SDS011;14000;52.056;8.510;2022-10-16T05:19:33;9.67;;;4.07;;
26277;SDS011;14000;52.056;8.510;2022-10-16T05:21:59;11.63;;;3.60;;
26277;SDS011;14000;52.056;8.510;2022-10-16T05:24:25;10.80;;;3.40;;
26277;SDS011;14000;52.056;8.510;2022-10-16T05:26:51;9.40;;;3.40;;
26277;SDS011;14000;52.056;8.510;2022-10-16T05:29:17;9.67;;;3.00;;
26277;SDS011;14000;52.056;8.510;2022-10-16T05:31:42;8.90;;;3.20;;
26277;SDS011;14000;52.056;8.510;2022-10-16T05:34:08;10.87;;;3.20;;
26277;SDS011;14000;52.056;8.510;2022-10-16T05:36:34;8.60;;;2.87;;
26277;SDS011;14000;52.056;8.510;2022-10-16T05:38:59;11.20;;;3.40;;
26277;SDS011;14000;52.056;8.510;2022-10-16T05:41:25;9.57;;;2.80;;
26277;SDS011;14000;52.056;8.510;2022-10-16T05:43:51;8.47;;;3.00;;
26277;SDS011;14000;52.056;8.510;2022-10-16T05:46:17;9.30;;;3.10;;
26277;SDS011;14000;52.056;8.510;2022-10-16T05:48:43;9.70;;;3.57;;
26277;SDS011;14000;52.056;8.510;2022-10-16T05:51:10;8.57;;;2.90;;
26277;SDS011;14000;52.056;8.510;2022-10-16T05:53:37;8.37;;;3.07;;
26277;SDS011;14000;52.056;8.510;2022-10-16T05:56:04;10.07;;;3.20;;
26277;SDS011;14000;52.056;8.510;2022-10-16T05:58:32;9.57;;;2.90;;
26277;SDS011;14000;52.056;8.510;2022-10-16T06:01:01;8.27;;;2.87;;
26277;SDS011;14000;52.056;8.510;2022-10-16T06:03:41;13.50;;;3.20;;
26277;SDS011;14000;52.056;8.510;2022-10-16T06:06:08;7.77;;;2.80;;
26277;SDS011;14000;52.056;8.510;2022-10-16T06:08:35;8.53;;;3.00;;
26277;SDS011;14000;52.056;8.510;2022-10-16T06:11:01;11.33;;;2.93;;
26277;SDS011;14000;52.056;8.510;2022-10-16T06:13:28;9.10;;;2.87;;
26277;SDS011;14000;52.056;8.510;2022-10-16T06:15:56;7.53;;;2.90;;
26277;SDS011;14000;52.056;8.510;2022-10-16T06:18:23;8.60;;;2.73;;
26277;SDS011;14000;52.056;8.510;2022-10-16T06:20:49;10.77;;;2.60;;
26277;SDS011;14000;52.056;8.510;2022-10-16T06:23:14;8.30;;;2.57;;
26277;SDS011;14000;52.056;8.510;2022-10-16T06:25:40;9.20;;;2.50;;
26277;SDS011;14000;52.056;8.510;2022-10-16T06:28:05;8.20;;;2.43;;
26277;SDS011;14000;52.056;8.510;2022-10-16T06:30:31;7.37;;;2.10;;
26277;SDS011;14000;52.056;8.510;2022-10-16T06:32:57;11.20;;;3.23;;
26277;SDS011;14000;52.056;8.510;2022-10-16T06:35:22;7.60;;;2.80;;
26277;SDS011;14000;52.056;8.510;2022-10-16T06:37:48;10.63;;;3.83;;
26277;SDS011;14000;52.056;8.510;2022-10-16T06:40:14;8.73;;;2.80;;
26277;SDS011;14000;52.056;8.510;2022-10-16T06:42:40;9.03;;;2.40;;
26277;SDS011;14000;52.056;8.510;2022-10-16T06:45:06;7.90;;;2.17;;
26277;SDS011;14000;52.056;8.510;2022-10-16T06:47:32;7.93;;;2.20;;
26277;SDS011;14000;52.056;8.510;2022-10-16T06:49:58;8.60;;;2.20;;
26277;SDS011;14000;52.056;8.510;2022-10-16T06:52:23;7.57;;;2.20;;
26277;SDS011;14000;52.056;8.510;2022-10-16T06:54:49;8.23;;;2.50;;
26277;SDS011;14000;52.056;8.510;2022-10-16T06:57:15;8.70;;;2.10;;
26277;SDS011;14000;52.056;8.510;2022-10-16T06:59:41;9.43;;;2.70;;
26277;SDS011;14000;52.056;8.510;2022-10-16T07:02:07;8.13;;;2.47;;
26277;SDS011;14000;52.056;8.510;2022-10-16T07:04:35;9.07;;;2.70;;
26277;SDS011;14000;52.056;8.510;2022-10-16T07:07:01;8.97;;;2.40;;
26277;SDS011;14000;52.056;8.510;2022-10-16T07:09:26;11.13;;;4.00;;
26277;SDS011;14000;52.056;8.510;2022-10-16T07:11:52;10.43;;;3.90;;
26277;SDS011;14000;52.056;8.510;2022-10-16T07:14:18;7.73;;;2.10;;
26277;SDS011;14000;52.056;8.510;2022-10-16T07:16:45;7.13;;;1.90;;
26277;SDS011;14000;52.056;8.510;2022-10-16T07:19:14;6.80;;;2.03;;
26277;SDS011;14000;52.056;8.510;2022-10-16T07:21:42;8.70;;;2.77;;
26277;SDS011;14000;52.056;8.510;2022-10-16T07:24:12;7.60;;;2.50;;
26277;SDS011;14000;52.056;8.510;2022-10-16T07:26:39;8.87;;;2.27;;
26277;SDS011;14000;52.056;8.510;2022-10-16T07:29:27;9.73;;;2.20;;
26277;SDS011;14000;52.056;8.510;2022-10-16T07:31:53;8.27;;;2.37;;
26277;SDS011;14000;52.056;8.510;2022-10-16T07:34:19;9.43;;;2.00;;
26277;SDS011;14000;52.056;8.510;2022-10-16T07:36:50;7.70;;;2.10;;
26277;SDS011;14000;52.056;8.510;2022-10-16T07:39:15;8.90;;;2.20;;
26277;SDS011;14000;52.056;8.510;2022-10-16T07:41:42;7.57;;;2.20;;
26277;SDS011;14000;52.056;8.510;2022-10-16T07:44:07;8.50;;;2.20;;
26277;SDS011;14000;52.056;8.510;2022-10-16T07:46:33;7.13;;;2.10;;
26277;SDS011;14000;52.056;8.510;2022-10-16T07:49:01;8.27;;;2.03;;
26277;SDS011;14000;52.056;8.510;2022-10-16T07:51:27;9.20;;;2.33;;
26277;SDS011;14000;52.056;8.510;2022-10-16T07:53:53;7.10;;;2.00;;
26277;SDS011;14000;52.056;8.510;2022-10-16T07:56:19;7.77;;;2.07;;
26277;SDS011;14000;52.056;8.510;2022-10-16T07:58:46;7.97;;;2.07;;
26277;SDS011;14000;52.056;8.510;2022-10-16T08:01:13;6.77;;;1.70;;
26277;SDS011;14000;52.056;8.510;2022-10-16T08:03:43;5.70;;;1.63;;
26277;SDS011;14000;52.056;8.510;2022-10-16T08:06:13;8.07;;;2.10;;
26277;SDS011;14000;52.056;8.510;2022-10-16T08:08:38;7.10;;;2.00;;
26277;SDS011;14000;52.056;8.510;2022-10-16T08:11:04;8.67;;;1.90;;
26277;SDS011;14000;52.056;8.510;2022-10-16T08:13:30;8.67;;;1.73;;
26277;SDS011;14000;52.056;8.510;2022-10-16T08:15:56;7.00;;;1.50;;
26277;SDS011;14000;52.056;8.510;2022-10-16T08:18:22;10.50;;;1.77;;
26277;SDS011;14000;52.056;8.510;2022-10-16T08:20:54;7.60;;;1.67;;
26277;SDS011;14000;52.056;8.510;2022-10-16T08:23:23;6.53;;;1.73;;
26277;SDS011;14000;52.056;8.510;2022-10-16T08:25:51;6.77;;;1.47;;
26277;SDS011;14000;52.056;8.510;2022-10-16T08:28:18;8.50;;;1.70;;
26277;SDS011;14000;52.056;8.510;2022-10-16T08:30:44;6.53;;;1.70;;
26277;SDS011;14000;52.056;8.510;2022-10-16T08:33:10;5.97;;;1.60;;
26277;SDS011;14000;52.056;8.510;2022-10-16T08:35:35;7.40;;;1.60;;
26277;SDS011;14000;52.056;8.510;2022-10-16T08:38:04;8.10;;;2.00;;
26277;SDS011;14000;52.056;8.510;2022-10-16T08:40:31;9.33;;;1.80;;
26277;SDS011;14000;52.056;8.510;2022-10-16T08:48:54;6.00;;;1.70;;
26277;SDS011;14000;52.056;8.510;2022-10-16T08:51:27;8.83;;;1.80;;
26277;SDS011;14000;52.056;8.510;2022-10-16T08:54:41;6.20;;;1.40;;
26277;SDS011;14000;52.056;8.510;2022-10-16T08:57:21;9.23;;;1.80;;
26277;SDS011;14000;52.056;8.510;2022-10-16T08:59:49;7.33;;;1.60;;
26277;SDS011;14000;52.056;8.510;2022-10-16T09:05:16;6.67;;;1.60;;
26277;SDS011;14000;52.056;8.510;2022-10-16T09:13:55;8.13;;;1.60;;
26277;SDS011;14000;52.056;8.510;2022-10-16T09:16:37;6.20;;;1.60;;
26277;SDS011;14000;52.056;8.510;2022-10-16T09:19:56;6.30;;;1.40;;
26277;SDS011;14000;52.056;8.510;2022-10-16T09:22:12;7.10;;;1.53;;
26277;SDS011;14000;52.056;8.510;2022-10-16T09:24:40;6.80;;;1.60;;
26277;SDS011;14000;52.056;8.510;2022-10-16T09:27:15;6.73;;;1.80;;
26277;SDS011;14000;52.056;8.510;2022-10-16T09:29:41;8.07;;;1.60;;
26277;SDS011;14000;52.056;8.510;2022-10-16T09:32:11;6.70;;;1.43;;
26277;SDS011;14000;52.056;8.510;2022-10-16T09:34:52;7.70;;;1.47;;
26277;SDS011;14000;52.056;8.510;2022-10-16T09:37:22;6.90;;;1.40;;
26277;SDS011;14000;52.056;8.510;2022-10-16T09:39:53;8.70;;;1.37;;
26277;SDS011;14000;52.056;8.510;2022-10-16T09:42:20;6.27;;;1.40;;
26277;SDS011;14000;52.056;8.510;2022-10-16T09:44:49;8.67;;;1.60;;
26277;SDS011;14000;52.056;8.510;2022-10-16T09:47:23;6.10;;;1.30;;
26277;SDS011;14000;52.056;8.510;2022-10-16T09:52:27;8.13;;;1.40;;
26277;SDS011;14000;52.056;8.510;2022-10-16T09:54:58;8.67;;;1.33;;
26277;SDS011;14000;52.056;8.510;2022-10-16T09:57:25;6.83;;;1.40;;
26277;SDS011;14000;52.056;8.510;2022-10-16T09:59:52;8.83;;;1.67;;
26277;SDS011;14000;52.056;8.510;2022-10-16T10:02:33;8.47;;;1.60;;
26277;SDS011;14000;52.056;8.510;2022-10-16T10:05:00;7.43;;;1.20;;
26277;SDS011;14000;52.056;8.510;2022-10-16T10:07:27;7.50;;;1.30;;
26277;SDS011;14000;52.056;8.510;2022-10-16T10:10:04;10.63;;;1.63;;
26277;SDS011;14000;52.056;8.510;2022-10-16T10:12:31;5.87;;;1.30;;
26277;SDS011;14000;52.056;8.510;2022-10-16T10:15:18;7.83;;;1.50;;
26277;SDS011;14000;52.056;8.510;2022-10-16T10:17:57;7.30;;;1.20;;
26277;SDS011;14000;52.056;8.510;2022-10-16T10:20:27;6.70;;;1.40;;
26277;SDS011;14000;52.056;8.510;2022-10-16T10:23:00;10.83;;;1.50;;
26277;SDS011;14000;52.056;8.510;2022-10-16T10:31:11;7.63;;;1.40;;
26277;SDS011;14000;52.056;8.510;2022-10-16T10:39:43;8.33;;;1.60;;
26277;SDS011;14000;52.056;8.510;2022-10-16T10:47:42;7.00;;;1.50;;
26277;SDS011;14000;52.056;8.510;2022-10-16T10:58:53;8.80;;;1.27;;
26277;SDS011;14000;52.056;8.510;2022-10-16T11:07:17;5.23;;;1.20;;
26277;SDS011;14000;52.056;8.510;2022-10-16T11:10:34;6.30;;;1.30;;
26277;SDS011;14000;52.056;8.510;2022-10-16T11:12:36;8.07;;;1.20;;
26277;SDS011;14000;52.056;8.510;2022-10-16T11:15:40;7.93;;;1.20;;
26277;SDS011;14000;52.056;8.510;2022-10-16T11:18:08;7.93;;;1.30;;
26277;SDS011;14000;52.056;8.510;2022-10-16T11:21:22;6.70;;;1.50;;
26277;SDS011;14000;52.056;8.510;2022-10-16T11:23:46;6.47;;;1.20;;
26277;SDS011;14000;52.056;8.510;2022-10-16T11:26:19;8.20;;;1.50;;
26277;SDS011;14000;52.056;8.510;2022-10-16T11:28:48;9.50;;;1.70;;
26277;SDS011;14000;52.056;8.510;2022-10-16T11:31:22;8.07;;;1.70;;
26277;SDS011;14000;52.056;8.510;2022-10-16T11:33:56;6.33;;;1.40;;
26277;SDS011;14000;52.056;8.510;2022-10-16T11:39:02;7.80;;;1.67;;
26277;SDS011;14000;52.056;8.510;2022-10-16T11:42:01;8.77;;;1.70;;
26277;SDS011;14000;52.056;8.510;2022-10-16T11:45:03;7.07;;;1.40;;
26277;SDS011;14000;52.056;8.510;2022-10-16T11:52:44;6.93;;;1.50;;
26277;SDS011;14000;52.056;8.510;2022-10-16T11:55:21;8.13;;;1.37;;
26277;SDS011;14000;52.056;8.510;2022-10-16T11:58:17;7.07;;;1.30;;
26277;SDS011;14000;52.056;8.510;2022-10-16T12:01:01;7.53;;;1.30;;
26277;SDS011;14000;52.056;8.510;2022-10-16T12:03:42;6.03;;;1.10;;
26277;SDS011;14000;52.056;8.510;2022-10-16T12:06:34;6.50;;;1.10;;
26277;SDS011;14000;52.056;8.510;2022-10-16T12:09:13;5.53;;;1.10;;
26277;SDS011;14000;52.056;8.510;2022-10-16T12:12:00;4.33;;;1.03;;
26277;SDS011;14000;52.056;8.510;2022-10-16T12:17:03;5.60;;;1.00;;
26277;SDS011;14000;52.056;8.510;2022-10-16T12:19:58;6.07;;;1.23;;
26277;SDS011;14000;52.056;8.510;2022-10-16T12:22:27;6.30;;;1.47;;
26277;SDS011;14000;52.056;8.510;2022-10-16T12:24:55;5.63;;;1.10;;
26277;SDS011;14000;52.056;8.510;2022-10-16T12:29:54;6.97;;;1.20;;
26277;SDS011;14000;52.056;8.510;2022-10-16T12:32:37;5.37;;;1.20;;
26277;SDS011;14000;52.056;8.510;2022-10-16T12:35:05;6.90;;;1.30;;
26277;SDS011;14000;52.056;8.510;2022-10-16T12:37:45;5.63;;;1.27;;
26277;SDS011;14000;52.056;8.510;2022-10-16T12:40:33;4.93;;;1.00;;
26277;SDS011;14000;52.056;8.510;2022-10-16T12:48:38;6.60;;;1.50;;
26277;SDS011;14000;52.056;8.510;2022-10-16T12:54:10;7.70;;;1.40;;
26277;SDS011;14000;52.056;8.510;2022-10-16T12:56:41;4.30;;;0.93;;
26277;SDS011;14000;52.056;8.510;2022-10-16T13:02:28;5.93;;;1.10;;
26277;SDS011;14000;52.056;8.510;2022-10-16T13:08:11;6.63;;;1.30;;
26277;SDS011;14000;52.056;8.510;2022-10-16T13:11:10;7.70;;;1.27;;
26277;SDS011;14000;52.056;8.510;2022-10-16T13:30:17;7.50;;;1.70;;
26277;SDS011;14000;52.056;8.510;2022-10-16T13:32:49;6.43;;;1.93;;
26277;SDS011;14000;52.056;8.510;2022-10-16T13:35:30;6.60;;;1.80;;
26277;SDS011;14000;52.056;8.510;2022-10-16T13:40:56;8.90;;;1.77;;
26277;SDS011;14000;52.056;8.510;2022-10-16T13:43:34;11.83;;;5.20;;
26277;SDS011;14000;52.056;8.510;2022-10-16T13:46:13;7.40;;;2.00;;
26277;SDS011;14000;52.056;8.510;2022-10-16T13:48:39;8.37;;;2.30;;
26277;SDS011;14000;52.056;8.510;2022-10-16T13:53:41;5.77;;;1.37;;
26277;SDS011;14000;52.056;8.510;2022-10-16T13:56:10;5.80;;;1.30;;
26277;SDS011;14000;52.056;8.510;2022-10-16T13:58:40;6.40;;;1.13;;
26277;SDS011;14000;52.056;8.510;2022-10-16T14:01:25;8.43;;;2.50;;
26277;SDS011;14000;52.056;8.510;2022-10-16T14:03:59;8.90;;;2.20;;
26277;SDS011;14000;52.056;8.510;2022-10-16T14:06:30;7.57;;;1.93;;
26277;SDS011;14000;52.056;8.510;2022-10-16T14:11:33;5.57;;;1.30;;
26277;SDS011;14000;52.056;8.510;2022-10-16T14:14:03;6.20;;;1.33;;
26277;SDS011;14000;52.056;8.510;2022-10-16T14:16:30;6.23;;;1.50;;
26277;SDS011;14000;52.056;8.510;2022-10-16T14:18:58;5.10;;;1.30;;
26277;SDS011;14000;52.056;8.510;2022-10-16T14:21:26;5.83;;;1.47;;
26277;SDS011;14000;52.056;8.510;2022-10-16T14:23:53;6.03;;;1.20;;
26277;SDS011;14000;52.056;8.510;2022-10-16T14:26:20;6.03;;;1.27;;
26277;SDS011;14000;52.056;8.510;2022-10-16T14:28:48;6.30;;;1.30;;
26277;SDS011;14000;52.056;8.510;2022-10-16T14:31:29;8.10;;;1.30;;
26277;SDS011;14000;52.056;8.510;2022-10-16T14:33:57;4.27;;;1.30;;
26277;SDS011;14000;52.056;8.510;2022-10-16T14:36:26;5.60;;;1.50;;
26277;SDS011;14000;52.056;8.510;2022-10-16T14:41:42;7.50;;;1.53;;
26277;SDS011;14000;52.056;8.510;2022-10-16T14:44:13;6.57;;;1.47;;
26277;SDS011;14000;52.056;8.510;2022-10-16T14:46:40;5.87;;;1.17;;
26277;SDS011;14000;52.056;8.510;2022-10-16T14:51:36;5.87;;;1.30;;
26277;SDS011;14000;52.056;8.510;2022-10-16T14:54:03;5.63;;;1.20;;
26277;SDS011;14000;52.056;8.510;2022-10-16T14:56:31;6.93;;;1.30;;
26277;SDS011;14000;52.056;8.510;2022-10-16T14:59:06;6.33;;;1.37;;
26277;SDS011;14000;52.056;8.510;2022-10-16T15:01:36;9.43;;;2.60;;
26277;SDS011;14000;52.056;8.510;2022-10-16T15:04:02;8.10;;;1.60;;
26277;SDS011;14000;52.056;8.510;2022-10-16T15:06:28;8.80;;;1.70;;
26277;SDS011;14000;52.056;8.510;2022-10-16T15:08:53;6.33;;;1.40;;
26277;SDS011;14000;52.056;8.510;2022-10-16T15:11:19;7.63;;;1.57;;
26277;SDS011;14000;52.056;8.510;2022-10-16T15:13:45;7.07;;;1.47;;
26277;SDS011;14000;52.056;8.510;2022-10-16T15:16:12;7.30;;;1.30;;
26277;SDS011;14000;52.056;8.510;2022-10-16T15:18:39;6.50;;;1.27;;
26277;SDS011;14000;52.056;8.510;2022-10-16T15:21:04;5.23;;;1.27;;
26277;SDS011;14000;52.056;8.510;2022-10-16T15:23:30;5.80;;;1.40;;
26277;SDS011;14000;52.056;8.510;2022-10-16T15:25:56;4.33;;;1.10;;
26277;SDS011;14000;52.056;8.510;2022-10-16T15:28:23;8.30;;;1.40;;
26277;SDS011;14000;52.056;8.510;2022-10-16T15:30:50;4.67;;;1.20;;
26277;SDS011;14000;52.056;8.510;2022-10-16T15:33:18;6.03;;;1.40;;
26277;SDS011;14000;52.056;8.510;2022-10-16T15:35:46;5.27;;;1.30;;
26277;SDS011;14000;52.056;8.510;2022-10-16T15:38:13;5.43;;;1.40;;
26277;SDS011;14000;52.056;8.510;2022-10-16T15:40:40;8.20;;;1.60;;
26277;SDS011;14000;52.056;8.510;2022-10-16T15:43:06;5.83;;;1.40;;
26277;SDS011;14000;52.056;8.510;2022-10-16T15:45:32;7.60;;;1.70;;
26277;SDS011;14000;52.056;8.510;2022-10-16T15:47:58;6.47;;;1.50;;
26277;SDS011;14000;52.056;8.510;2022-10-16T15:50:23;5.80;;;1.47;;
26277;SDS011;14000;52.056;8.510;2022-10-16T15:52:50;6.30;;;1.50;;
26277;SDS011;14000;52.056;8.510;2022-10-16T15:55:16;6.40;;;1.90;;
26277;SDS011;14000;52.056;8.510;2022-10-16T15:57:43;7.30;;;2.13;;
26277;SDS011;14000;52.056;8.510;2022-10-16T16:00:11;7.43;;;1.90;;
26277;SDS011;14000;52.056;8.510;2022-10-16T16:02:42;5.97;;;1.60;;
26277;SDS011;14000;52.056;8.510;2022-10-16T16:05:09;8.00;;;1.83;;
26277;SDS011;14000;52.056;8.510;2022-10-16T16:07:36;7.57;;;1.80;;
26277;SDS011;14000;52.056;8.510;2022-10-16T16:10:04;20.17;;;10.17;;
26277;SDS011;14000;52.056;8.510;2022-10-16T16:12:31;8.87;;;3.00;;
26277;SDS011;14000;52.056;8.510;2022-10-16T16:14:57;6.37;;;1.90;;
26277;SDS011;14000;52.056;8.510;2022-10-16T16:17:23;6.47;;;1.80;;
26277;SDS011;14000;52.056;8.510;2022-10-16T16:19:49;6.23;;;1.70;;
26277;SDS011;14000;52.056;8.510;2022-10-16T16:22:15;8.37;;;2.00;;
26277;SDS011;14000;52.056;8.510;2022-10-16T16:24:40;9.27;;;2.30;;
26277;SDS011;14000;52.056;8.510;2022-10-16T16:27:06;10.67;;;2.30;;
26277;SDS011;14000;52.056;8.510;2022-10-16T16:29:32;7.77;;;2.20;;
26277;SDS011;14000;52.056;8.510;2022-10-16T16:31:58;10.83;;;2.80;;
26277;SDS011;14000;52.056;8.510;2022-10-16T16:34:25;8.13;;;2.40;;
26277;SDS011;14000;52.056;8.510;2022-10-16T16:36:51;8.47;;;2.50;;
26277;SDS011;14000;52.056;8.510;2022-10-16T16:39:17;8.57;;;2.43;;
26277;SDS011;14000;52.056;8.510;2022-10-16T16:41:43;12.17;;;3.80;;
26277;SDS011;14000;52.056;8.510;2022-10-16T16:44:10;10.53;;;3.13;;
26277;SDS011;14000;52.056;8.510;2022-10-16T16:46:36;9.43;;;3.20;;
26277;SDS011;14000;52.056;8.510;2022-10-16T16:49:04;10.40;;;3.80;;
26277;SDS011;14000;52.056;8.510;2022-10-16T16:51:31;9.00;;;3.10;;
26277;SDS011;14000;52.056;8.510;2022-10-16T16:53:57;11.37;;;3.10;;